sensor_id;sensor_type;location;lat;lon;timestamp;temperature;humidity
16074;DHT22;8141;52.664;5.074;2023-07-13T00:00:35;26.80;56.10
16074;DHT22;8141;52.664;5.074;2023-07-13T00:03:01;26.80;56.10
16074;DHT22;8141;52.664;5.074;2023-07-13T00:05:28;26.80;56.30
16074;DHT22;8141;52.664;5.074;2023-07-13T00:07:54;26.80;56.20
16074;DHT22;8141;52.664;5.074;2023-07-13T00:10:20;26.90;56.30
16074;DHT22;8141;52.664;5.074;2023-07-13T00:12:46;26.90;56.90
16074;DHT22;8141;52.664;5.074;2023-07-13T00:15:22;26.90;56.30
16074;DHT22;8141;52.664;5.074;2023-07-13T00:17:53;26.90;56.30
16074;DHT22;8141;52.664;5.074;2023-07-13T00:20:24;26.80;56.30
16074;DHT22;8141;52.664;5.074;2023-07-13T00:22:54;26.90;56.40
16074;DHT22;8141;52.664;5.074;2023-07-13T00:25:21;26.90;56.30
16074;DHT22;8141;52.664;5.074;2023-07-13T00:27:50;26.90;56.30
16074;DHT22;8141;52.664;5.074;2023-07-13T00:30:16;26.90;56.60
16074;DHT22;8141;52.664;5.074;2023-07-13T00:32:43;26.90;56.40
16074;DHT22;8141;52.664;5.074;2023-07-13T00:35:09;26.80;56.40
16074;DHT22;8141;52.664;5.074;2023-07-13T00:37:35;26.80;56.30
16074;DHT22;8141;52.664;5.074;2023-07-13T00:40:06;26.90;56.40
16074;DHT22;8141;52.664;5.074;2023-07-13T00:42:33;26.90;56.40
16074;DHT22;8141;52.664;5.074;2023-07-13T00:47:37;26.90;56.40
16074;DHT22;8141;52.664;5.074;2023-07-13T00:50:06;26.80;56.40
16074;DHT22;8141;52.664;5.074;2023-07-13T00:52:36;26.90;56.50
16074;DHT22;8141;52.664;5.074;2023-07-13T00:55:04;26.90;56.50
16074;DHT22;8141;52.664;5.074;2023-07-13T00:57:30;26.90;56.50
16074;DHT22;8141;52.664;5.074;2023-07-13T00:59:59;26.90;56.50
16074;DHT22;8141;52.664;5.074;2023-07-13T01:02:33;26.90;56.70
16074;DHT22;8141;52.664;5.074;2023-07-13T01:04:59;26.90;56.60
16074;DHT22;8141;52.664;5.074;2023-07-13T01:07:27;26.90;56.70
16074;DHT22;8141;52.664;5.074;2023-07-13T01:09:53;26.90;56.70
16074;DHT22;8141;52.664;5.074;2023-07-13T01:12:18;26.90;56.60
16074;DHT22;8141;52.664;5.074;2023-07-13T01:14:44;26.90;56.80
16074;DHT22;8141;52.664;5.074;2023-07-13T01:17:10;26.90;56.60
16074;DHT22;8141;52.664;5.074;2023-07-13T01:19:41;26.90;56.70
16074;DHT22;8141;52.664;5.074;2023-07-13T01:22:11;26.90;56.70
16074;DHT22;8141;52.664;5.074;2023-07-13T01:24:40;26.90;56.80
16074;DHT22;8141;52.664;5.074;2023-07-13T01:27:09;26.90;56.80
16074;DHT22;8141;52.664;5.074;2023-07-13T01:29:37;26.90;56.70
16074;DHT22;8141;52.664;5.074;2023-07-13T01:32:08;26.90;56.70
16074;DHT22;8141;52.664;5.074;2023-07-13T01:34:36;26.90;56.70
16074;DHT22;8141;52.664;5.074;2023-07-13T01:37:03;26.90;56.70
16074;DHT22;8141;52.664;5.074;2023-07-13T01:39:32;26.90;56.70
16074;DHT22;8141;52.664;5.074;2023-07-13T01:41:58;26.90;56.70
16074;DHT22;8141;52.664;5.074;2023-07-13T01:44:24;26.90;56.70
16074;DHT22;8141;52.664;5.074;2023-07-13T01:46:51;26.90;56.70
16074;DHT22;8141;52.664;5.074;2023-07-13T01:49:17;26.90;56.70
16074;DHT22;8141;52.664;5.074;2023-07-13T01:51:42;26.90;56.70
16074;DHT22;8141;52.664;5.074;2023-07-13T01:54:08;26.90;56.80
16074;DHT22;8141;52.664;5.074;2023-07-13T01:56:34;26.90;57.10
16074;DHT22;8141;52.664;5.074;2023-07-13T01:59:00;26.90;56.80
16074;DHT22;8141;52.664;5.074;2023-07-13T02:01:26;26.90;56.80
16074;DHT22;8141;52.664;5.074;2023-07-13T02:03:51;26.90;56.80
16074;DHT22;8141;52.664;5.074;2023-07-13T02:06:17;26.90;56.80
16074;DHT22;8141;52.664;5.074;2023-07-13T02:08:43;26.90;56.80
16074;DHT22;8141;52.664;5.074;2023-07-13T02:11:09;26.90;56.90
16074;DHT22;8141;52.664;5.074;2023-07-13T02:13:34;26.90;56.90
16074;DHT22;8141;52.664;5.074;2023-07-13T02:16:00;26.90;56.90
16074;DHT22;8141;52.664;5.074;2023-07-13T02:18:26;26.90;56.90
16074;DHT22;8141;52.664;5.074;2023-07-13T02:20:52;26.90;56.90
16074;DHT22;8141;52.664;5.074;2023-07-13T02:23:18;26.90;57.00
16074;DHT22;8141;52.664;5.074;2023-07-13T02:25:44;26.90;57.10
16074;DHT22;8141;52.664;5.074;2023-07-13T02:28:10;26.90;57.00
16074;DHT22;8141;52.664;5.074;2023-07-13T02:30:36;26.90;57.10
16074;DHT22;8141;52.664;5.074;2023-07-13T02:33:04;26.90;57.10
16074;DHT22;8141;52.664;5.074;2023-07-13T02:35:29;26.90;57.10
16074;DHT22;8141;52.664;5.074;2023-07-13T02:37:55;26.90;57.10
16074;DHT22;8141;52.664;5.074;2023-07-13T02:40:21;26.90;57.10
16074;DHT22;8141;52.664;5.074;2023-07-13T02:42:47;26.90;57.20
16074;DHT22;8141;52.664;5.074;2023-07-13T02:45:13;26.90;57.10
16074;DHT22;8141;52.664;5.074;2023-07-13T02:47:41;26.90;57.20
16074;DHT22;8141;52.664;5.074;2023-07-13T02:50:08;26.90;57.20
16074;DHT22;8141;52.664;5.074;2023-07-13T02:52:34;26.90;57.30
16074;DHT22;8141;52.664;5.074;2023-07-13T02:55:00;26.90;57.20
16074;DHT22;8141;52.664;5.074;2023-07-13T02:57:25;26.90;57.30
16074;DHT22;8141;52.664;5.074;2023-07-13T02:59:53;26.90;57.20
16074;DHT22;8141;52.664;5.074;2023-07-13T03:02:20;26.90;57.20
16074;DHT22;8141;52.664;5.074;2023-07-13T03:04:45;26.90;57.30
16074;DHT22;8141;52.664;5.074;2023-07-13T03:07:11;26.90;57.40
16074;DHT22;8141;52.664;5.074;2023-07-13T03:09:39;26.90;57.60
16074;DHT22;8141;52.664;5.074;2023-07-13T03:12:05;26.90;57.60
16074;DHT22;8141;52.664;5.074;2023-07-13T03:14:32;26.90;57.50
16074;DHT22;8141;52.664;5.074;2023-07-13T03:16:57;26.90;57.60
16074;DHT22;8141;52.664;5.074;2023-07-13T03:19:23;26.90;57.50
16074;DHT22;8141;52.664;5.074;2023-07-13T03:21:49;26.90;57.50
16074;DHT22;8141;52.664;5.074;2023-07-13T03:24:15;26.90;57.60
16074;DHT22;8141;52.664;5.074;2023-07-13T03:26:40;26.90;57.40
16074;DHT22;8141;52.664;5.074;2023-07-13T03:29:06;26.90;57.50
16074;DHT22;8141;52.664;5.074;2023-07-13T03:31:34;26.90;57.50
16074;DHT22;8141;52.664;5.074;2023-07-13T03:34:01;26.90;57.50
16074;DHT22;8141;52.664;5.074;2023-07-13T03:36:29;26.90;57.60
16074;DHT22;8141;52.664;5.074;2023-07-13T03:38:57;26.90;57.50
16074;DHT22;8141;52.664;5.074;2023-07-13T03:41:25;26.90;57.50
16074;DHT22;8141;52.664;5.074;2023-07-13T03:43:51;26.90;57.50
16074;DHT22;8141;52.664;5.074;2023-07-13T03:46:18;26.90;57.40
16074;DHT22;8141;52.664;5.074;2023-07-13T03:48:45;26.90;57.50
16074;DHT22;8141;52.664;5.074;2023-07-13T03:51:13;26.90;57.50
16074;DHT22;8141;52.664;5.074;2023-07-13T03:53:43;26.90;57.50
16074;DHT22;8141;52.664;5.074;2023-07-13T03:56:10;26.90;57.50
16074;DHT22;8141;52.664;5.074;2023-07-13T03:58:38;26.90;57.60
16074;DHT22;8141;52.664;5.074;2023-07-13T04:01:07;26.90;57.60
16074;DHT22;8141;52.664;5.074;2023-07-13T04:03:34;26.90;57.60
16074;DHT22;8141;52.664;5.074;2023-07-13T04:06:02;26.90;57.80
16074;DHT22;8141;52.664;5.074;2023-07-13T04:08:31;26.90;57.90
16074;DHT22;8141;52.664;5.074;2023-07-13T04:10:59;26.90;58.00
16074;DHT22;8141;52.664;5.074;2023-07-13T04:13:26;26.90;58.00
16074;DHT22;8141;52.664;5.074;2023-07-13T04:15:53;26.90;58.10
16074;DHT22;8141;52.664;5.074;2023-07-13T04:18:19;26.90;58.20
16074;DHT22;8141;52.664;5.074;2023-07-13T04:20:46;26.90;58.20
16074;DHT22;8141;52.664;5.074;2023-07-13T04:23:13;26.90;58.10
16074;DHT22;8141;52.664;5.074;2023-07-13T04:25:39;26.90;58.70
16074;DHT22;8141;52.664;5.074;2023-07-13T04:28:05;26.90;58.10
16074;DHT22;8141;52.664;5.074;2023-07-13T04:30:31;26.90;58.10
16074;DHT22;8141;52.664;5.074;2023-07-13T04:32:57;26.90;58.10
16074;DHT22;8141;52.664;5.074;2023-07-13T04:35:22;26.90;58.20
16074;DHT22;8141;52.664;5.074;2023-07-13T04:37:49;26.90;58.10
16074;DHT22;8141;52.664;5.074;2023-07-13T04:40:19;26.90;58.20
16074;DHT22;8141;52.664;5.074;2023-07-13T04:42:46;26.90;58.30
16074;DHT22;8141;52.664;5.074;2023-07-13T04:45:13;26.90;58.20
16074;DHT22;8141;52.664;5.074;2023-07-13T04:47:40;26.90;58.20
16074;DHT22;8141;52.664;5.074;2023-07-13T04:50:07;26.90;58.20
16074;DHT22;8141;52.664;5.074;2023-07-13T04:52:34;26.90;58.10
16074;DHT22;8141;52.664;5.074;2023-07-13T04:55:00;26.90;58.10
16074;DHT22;8141;52.664;5.074;2023-07-13T04:57:27;26.90;58.20
16074;DHT22;8141;52.664;5.074;2023-07-13T04:59:53;26.90;58.30
16074;DHT22;8141;52.664;5.074;2023-07-13T05:02:20;26.90;58.40
16074;DHT22;8141;52.664;5.074;2023-07-13T05:04:47;26.90;58.60
16074;DHT22;8141;52.664;5.074;2023-07-13T05:07:13;26.90;58.70
16074;DHT22;8141;52.664;5.074;2023-07-13T05:09:40;26.90;58.80
16074;DHT22;8141;52.664;5.074;2023-07-13T05:12:08;26.90;58.70
16074;DHT22;8141;52.664;5.074;2023-07-13T05:14:34;26.90;58.70
16074;DHT22;8141;52.664;5.074;2023-07-13T05:17:00;26.90;58.60
16074;DHT22;8141;52.664;5.074;2023-07-13T05:19:26;26.90;58.60
16074;DHT22;8141;52.664;5.074;2023-07-13T05:21:51;26.90;58.60
16074;DHT22;8141;52.664;5.074;2023-07-13T05:24:17;26.90;58.70
16074;DHT22;8141;52.664;5.074;2023-07-13T05:26:44;26.90;58.60
16074;DHT22;8141;52.664;5.074;2023-07-13T05:29:09;26.90;58.60
16074;DHT22;8141;52.664;5.074;2023-07-13T05:31:36;26.90;58.70
16074;DHT22;8141;52.664;5.074;2023-07-13T05:34:02;26.90;58.70
16074;DHT22;8141;52.664;5.074;2023-07-13T05:36:27;26.90;58.70
16074;DHT22;8141;52.664;5.074;2023-07-13T05:38:53;26.90;58.60
16074;DHT22;8141;52.664;5.074;2023-07-13T05:41:19;26.90;58.80
16074;DHT22;8141;52.664;5.074;2023-07-13T05:43:45;26.90;58.70
16074;DHT22;8141;52.664;5.074;2023-07-13T05:46:11;26.90;58.80
16074;DHT22;8141;52.664;5.074;2023-07-13T05:48:36;26.90;58.80
16074;DHT22;8141;52.664;5.074;2023-07-13T05:51:02;26.90;58.80
16074;DHT22;8141;52.664;5.074;2023-07-13T05:53:28;26.90;58.80
16074;DHT22;8141;52.664;5.074;2023-07-13T05:55:54;26.90;58.80
16074;DHT22;8141;52.664;5.074;2023-07-13T05:58:20;26.90;58.70
16074;DHT22;8141;52.664;5.074;2023-07-13T06:00:47;26.90;58.70
16074;DHT22;8141;52.664;5.074;2023-07-13T06:03:14;26.90;58.70
16074;DHT22;8141;52.664;5.074;2023-07-13T06:05:39;26.90;58.70
16074;DHT22;8141;52.664;5.074;2023-07-13T06:08:08;26.90;58.70
16074;DHT22;8141;52.664;5.074;2023-07-13T06:10:37;26.90;58.70
16074;DHT22;8141;52.664;5.074;2023-07-13T06:13:02;26.90;58.60
16074;DHT22;8141;52.664;5.074;2023-07-13T06:15:28;26.90;58.80
16074;DHT22;8141;52.664;5.074;2023-07-13T06:17:54;26.90;58.80
16074;DHT22;8141;52.664;5.074;2023-07-13T06:20:20;26.90;58.80
16074;DHT22;8141;52.664;5.074;2023-07-13T06:22:46;26.90;58.90
16074;DHT22;8141;52.664;5.074;2023-07-13T06:25:11;26.90;58.90
16074;DHT22;8141;52.664;5.074;2023-07-13T06:27:37;26.90;58.90
16074;DHT22;8141;52.664;5.074;2023-07-13T06:30:03;26.90;59.00
16074;DHT22;8141;52.664;5.074;2023-07-13T06:32:29;26.90;59.00
16074;DHT22;8141;52.664;5.074;2023-07-13T06:34:55;27.00;58.90
16074;DHT22;8141;52.664;5.074;2023-07-13T06:37:21;26.90;58.80
16074;DHT22;8141;52.664;5.074;2023-07-13T06:39:47;26.90;58.90
16074;DHT22;8141;52.664;5.074;2023-07-13T06:42:13;27.00;59.00
16074;DHT22;8141;52.664;5.074;2023-07-13T06:44:38;26.90;59.00
16074;DHT22;8141;52.664;5.074;2023-07-13T06:47:04;26.90;59.90
16074;DHT22;8141;52.664;5.074;2023-07-13T06:49:30;27.00;59.20
16074;DHT22;8141;52.664;5.074;2023-07-13T06:51:56;26.90;57.90
16074;DHT22;8141;52.664;5.074;2023-07-13T06:54:22;26.90;57.30
16074;DHT22;8141;52.664;5.074;2023-07-13T06:56:48;26.90;56.90
16074;DHT22;8141;52.664;5.074;2023-07-13T06:59:13;26.80;56.50
16074;DHT22;8141;52.664;5.074;2023-07-13T07:01:39;26.80;56.10
16074;DHT22;8141;52.664;5.074;2023-07-13T07:04:05;26.80;55.90
16074;DHT22;8141;52.664;5.074;2023-07-13T07:06:30;26.70;55.70
16074;DHT22;8141;52.664;5.074;2023-07-13T07:08:56;26.80;55.80
16074;DHT22;8141;52.664;5.074;2023-07-13T07:11:24;26.70;55.60
16074;DHT22;8141;52.664;5.074;2023-07-13T07:13:52;26.80;55.80
16074;DHT22;8141;52.664;5.074;2023-07-13T07:16:19;26.70;56.10
16074;DHT22;8141;52.664;5.074;2023-07-13T07:18:46;26.70;55.90
16074;DHT22;8141;52.664;5.074;2023-07-13T07:21:13;26.70;56.10
16074;DHT22;8141;52.664;5.074;2023-07-13T07:23:39;26.70;57.00
16074;DHT22;8141;52.664;5.074;2023-07-13T07:26:05;26.80;56.70
16074;DHT22;8141;52.664;5.074;2023-07-13T07:28:34;26.80;56.80
16074;DHT22;8141;52.664;5.074;2023-07-13T07:30:59;26.80;57.00
16074;DHT22;8141;52.664;5.074;2023-07-13T07:33:25;26.80;57.00
16074;DHT22;8141;52.664;5.074;2023-07-13T07:35:51;26.80;57.20
16074;DHT22;8141;52.664;5.074;2023-07-13T07:38:17;26.80;57.40
16074;DHT22;8141;52.664;5.074;2023-07-13T07:40:43;26.80;57.40
16074;DHT22;8141;52.664;5.074;2023-07-13T07:43:11;26.80;57.60
16074;DHT22;8141;52.664;5.074;2023-07-13T07:45:39;26.90;57.70
16074;DHT22;8141;52.664;5.074;2023-07-13T07:48:06;26.90;57.70
16074;DHT22;8141;52.664;5.074;2023-07-13T07:50:32;26.90;57.80
16074;DHT22;8141;52.664;5.074;2023-07-13T07:52:58;26.90;57.70
16074;DHT22;8141;52.664;5.074;2023-07-13T07:55:25;26.90;57.80
16074;DHT22;8141;52.664;5.074;2023-07-13T07:57:56;27.00;57.80
16074;DHT22;8141;52.664;5.074;2023-07-13T08:00:21;27.00;57.70
16074;DHT22;8141;52.664;5.074;2023-07-13T08:02:47;27.00;57.80
16074;DHT22;8141;52.664;5.074;2023-07-13T08:05:14;27.00;57.90
16074;DHT22;8141;52.664;5.074;2023-07-13T08:07:40;27.00;58.10
16074;DHT22;8141;52.664;5.074;2023-07-13T08:10:07;27.10;57.50
16074;DHT22;8141;52.664;5.074;2023-07-13T08:12:38;27.10;56.90
16074;DHT22;8141;52.664;5.074;2023-07-13T08:15:05;27.00;56.70
16074;DHT22;8141;52.664;5.074;2023-07-13T08:17:32;27.00;56.30
16074;DHT22;8141;52.664;5.074;2023-07-13T08:19:58;27.00;56.20
16074;DHT22;8141;52.664;5.074;2023-07-13T08:22:23;26.90;56.00
16074;DHT22;8141;52.664;5.074;2023-07-13T08:24:49;26.90;55.40
16074;DHT22;8141;52.664;5.074;2023-07-13T08:27:24;26.90;55.10
16074;DHT22;8141;52.664;5.074;2023-07-13T08:29:52;26.90;54.80
16074;DHT22;8141;52.664;5.074;2023-07-13T08:32:19;26.90;54.60
16074;DHT22;8141;52.664;5.074;2023-07-13T08:34:46;26.90;54.40
16074;DHT22;8141;52.664;5.074;2023-07-13T08:37:12;26.90;54.20
16074;DHT22;8141;52.664;5.074;2023-07-13T08:39:38;26.90;54.20
16074;DHT22;8141;52.664;5.074;2023-07-13T08:45:11;26.90;55.10
16074;DHT22;8141;52.664;5.074;2023-07-13T08:47:42;26.90;55.60
16074;DHT22;8141;52.664;5.074;2023-07-13T08:50:15;26.90;55.60
16074;DHT22;8141;52.664;5.074;2023-07-13T08:52:44;26.90;55.60
16074;DHT22;8141;52.664;5.074;2023-07-13T08:55:17;27.00;55.80
16074;DHT22;8141;52.664;5.074;2023-07-13T08:57:48;27.00;55.80
16074;DHT22;8141;52.664;5.074;2023-07-13T09:00:47;27.00;55.80
16074;DHT22;8141;52.664;5.074;2023-07-13T09:03:23;27.00;55.90
16074;DHT22;8141;52.664;5.074;2023-07-13T09:05:54;27.10;56.00
16074;DHT22;8141;52.664;5.074;2023-07-13T09:14:31;27.20;56.00
16074;DHT22;8141;52.664;5.074;2023-07-13T09:17:05;27.20;56.00
16074;DHT22;8141;52.664;5.074;2023-07-13T09:19:35;27.20;56.00
16074;DHT22;8141;52.664;5.074;2023-07-13T09:22:03;27.20;56.00
16074;DHT22;8141;52.664;5.074;2023-07-13T09:24:39;27.20;55.80
16074;DHT22;8141;52.664;5.074;2023-07-13T09:27:19;27.20;55.80
16074;DHT22;8141;52.664;5.074;2023-07-13T09:29:54;27.20;55.70
16074;DHT22;8141;52.664;5.074;2023-07-13T09:32:24;27.20;55.60
16074;DHT22;8141;52.664;5.074;2023-07-13T09:34:55;27.30;55.80
16074;DHT22;8141;52.664;5.074;2023-07-13T09:37:24;27.20;55.70
16074;DHT22;8141;52.664;5.074;2023-07-13T09:39:56;27.20;55.70
16074;DHT22;8141;52.664;5.074;2023-07-13T09:42:25;27.30;55.80
16074;DHT22;8141;52.664;5.074;2023-07-13T09:50:03;27.30;55.70
16074;DHT22;8141;52.664;5.074;2023-07-13T09:52:47;27.20;55.60
16074;DHT22;8141;52.664;5.074;2023-07-13T09:55:32;27.30;55.60
16074;DHT22;8141;52.664;5.074;2023-07-13T09:58:17;27.30;55.70
16074;DHT22;8141;52.664;5.074;2023-07-13T10:01:01;27.40;55.60
16074;DHT22;8141;52.664;5.074;2023-07-13T10:03:31;27.30;55.50
16074;DHT22;8141;52.664;5.074;2023-07-13T10:06:16;27.30;55.50
16074;DHT22;8141;52.664;5.074;2023-07-13T10:08:45;27.30;55.50
16074;DHT22;8141;52.664;5.074;2023-07-13T10:11:24;27.30;55.50
16074;DHT22;8141;52.664;5.074;2023-07-13T10:13:57;27.40;55.60
16074;DHT22;8141;52.664;5.074;2023-07-13T10:16:34;27.30;55.50
16074;DHT22;8141;52.664;5.074;2023-07-13T10:19:10;27.30;55.40
16074;DHT22;8141;52.664;5.074;2023-07-13T10:21:47;27.30;55.40
16074;DHT22;8141;52.664;5.074;2023-07-13T10:24:22;27.30;55.20
16074;DHT22;8141;52.664;5.074;2023-07-13T10:27:11;27.20;55.30
16074;DHT22;8141;52.664;5.074;2023-07-13T10:29:59;27.30;55.40
16074;DHT22;8141;52.664;5.074;2023-07-13T10:32:30;27.30;55.40
16074;DHT22;8141;52.664;5.074;2023-07-13T10:34:56;27.30;55.40
16074;DHT22;8141;52.664;5.074;2023-07-13T10:37:26;27.30;55.40
16074;DHT22;8141;52.664;5.074;2023-07-13T10:39:56;27.40;55.50
16074;DHT22;8141;52.664;5.074;2023-07-13T10:42:42;27.40;55.40
16074;DHT22;8141;52.664;5.074;2023-07-13T10:45:16;27.40;55.20
16074;DHT22;8141;52.664;5.074;2023-07-13T10:47:44;27.40;55.20
16074;DHT22;8141;52.664;5.074;2023-07-13T10:50:30;27.40;55.30
16074;DHT22;8141;52.664;5.074;2023-07-13T10:53:32;27.40;55.90
16074;DHT22;8141;52.664;5.074;2023-07-13T10:56:01;27.40;54.80
16074;DHT22;8141;52.664;5.074;2023-07-13T10:58:36;27.30;54.20
16074;DHT22;8141;52.664;5.074;2023-07-13T11:01:14;27.30;54.30
16074;DHT22;8141;52.664;5.074;2023-07-13T11:03:54;27.30;54.30
16074;DHT22;8141;52.664;5.074;2023-07-13T11:06:41;27.30;54.40
16074;DHT22;8141;52.664;5.074;2023-07-13T11:15:00;27.30;54.30
16074;DHT22;8141;52.664;5.074;2023-07-13T11:25:34;27.40;54.50
16074;DHT22;8141;52.664;5.074;2023-07-13T11:30:46;27.40;55.00
16074;DHT22;8141;52.664;5.074;2023-07-13T11:36:15;27.40;54.50
16074;DHT22;8141;52.664;5.074;2023-07-13T11:39:10;27.40;54.50
16074;DHT22;8141;52.664;5.074;2023-07-13T11:41:57;27.50;54.60
16074;DHT22;8141;52.664;5.074;2023-07-13T11:44:27;27.40;54.60
16074;DHT22;8141;52.664;5.074;2023-07-13T11:47:14;27.50;54.60
16074;DHT22;8141;52.664;5.074;2023-07-13T11:49:54;27.50;54.40
16074;DHT22;8141;52.664;5.074;2023-07-13T11:52:35;27.50;54.50
16074;DHT22;8141;52.664;5.074;2023-07-13T11:55:15;27.50;54.50
16074;DHT22;8141;52.664;5.074;2023-07-13T11:57:47;27.50;54.50
16074;DHT22;8141;52.664;5.074;2023-07-13T12:00:23;27.50;54.50
16074;DHT22;8141;52.664;5.074;2023-07-13T12:02:55;27.50;54.50
16074;DHT22;8141;52.664;5.074;2023-07-13T12:05:22;27.50;54.50
16074;DHT22;8141;52.664;5.074;2023-07-13T12:07:48;27.50;54.50
16074;DHT22;8141;52.664;5.074;2023-07-13T12:10:29;27.50;54.40
16074;DHT22;8141;52.664;5.074;2023-07-13T12:15:41;27.50;54.50
16074;DHT22;8141;52.664;5.074;2023-07-13T12:18:23;27.50;54.40
16074;DHT22;8141;52.664;5.074;2023-07-13T12:20:57;27.60;54.50
16074;DHT22;8141;52.664;5.074;2023-07-13T12:23:32;27.50;54.40
16074;DHT22;8141;52.664;5.074;2023-07-13T12:26:02;27.60;54.40
16074;DHT22;8141;52.664;5.074;2023-07-13T12:28:37;27.50;54.50
16074;DHT22;8141;52.664;5.074;2023-07-13T12:31:07;27.60;54.50
16074;DHT22;8141;52.664;5.074;2023-07-13T12:36:52;27.60;54.30
16074;DHT22;8141;52.664;5.074;2023-07-13T12:39:35;27.60;54.50
16074;DHT22;8141;52.664;5.074;2023-07-13T12:42:23;27.60;54.50
16074;DHT22;8141;52.664;5.074;2023-07-13T12:45:03;27.60;54.30
16074;DHT22;8141;52.664;5.074;2023-07-13T12:47:44;27.60;54.50
16074;DHT22;8141;52.664;5.074;2023-07-13T12:50:17;27.60;54.40
16074;DHT22;8141;52.664;5.074;2023-07-13T12:52:51;27.60;54.50
16074;DHT22;8141;52.664;5.074;2023-07-13T12:55:20;27.60;54.60
16074;DHT22;8141;52.664;5.074;2023-07-13T12:57:57;27.60;54.50
16074;DHT22;8141;52.664;5.074;2023-07-13T13:00:40;27.60;54.50
16074;DHT22;8141;52.664;5.074;2023-07-13T13:03:22;27.60;54.50
16074;DHT22;8141;52.664;5.074;2023-07-13T13:05:49;27.60;54.50
16074;DHT22;8141;52.664;5.074;2023-07-13T13:08:15;27.60;54.30
16074;DHT22;8141;52.664;5.074;2023-07-13T13:10:41;27.60;54.00
16074;DHT22;8141;52.664;5.074;2023-07-13T13:13:06;27.50;53.70
16074;DHT22;8141;52.664;5.074;2023-07-13T13:15:33;27.60;53.80
16074;DHT22;8141;52.664;5.074;2023-07-13T13:17:59;27.60;53.60
16074;DHT22;8141;52.664;5.074;2023-07-13T13:20:25;27.50;53.50
16074;DHT22;8141;52.664;5.074;2023-07-13T13:22:51;27.50;53.50
16074;DHT22;8141;52.664;5.074;2023-07-13T13:25:18;27.50;53.30
16074;DHT22;8141;52.664;5.074;2023-07-13T13:27:45;27.50;53.20
16074;DHT22;8141;52.664;5.074;2023-07-13T13:30:12;27.50;53.10
16074;DHT22;8141;52.664;5.074;2023-07-13T13:32:40;27.50;53.20
16074;DHT22;8141;52.664;5.074;2023-07-13T13:35:17;27.50;53.00
16074;DHT22;8141;52.664;5.074;2023-07-13T13:37:44;27.50;53.00
16074;DHT22;8141;52.664;5.074;2023-07-13T13:40:15;27.50;52.90
16074;DHT22;8141;52.664;5.074;2023-07-13T13:42:42;27.40;52.80
16074;DHT22;8141;52.664;5.074;2023-07-13T13:45:10;27.40;52.80
16074;DHT22;8141;52.664;5.074;2023-07-13T13:47:36;27.40;52.90
16074;DHT22;8141;52.664;5.074;2023-07-13T13:52:41;27.50;52.90
16074;DHT22;8141;52.664;5.074;2023-07-13T13:55:14;27.50;53.00
16074;DHT22;8141;52.664;5.074;2023-07-13T13:57:47;27.50;52.90
16074;DHT22;8141;52.664;5.074;2023-07-13T14:00:15;27.50;52.90
16074;DHT22;8141;52.664;5.074;2023-07-13T14:02:45;27.50;53.00
16074;DHT22;8141;52.664;5.074;2023-07-13T14:05:22;27.50;53.00
16074;DHT22;8141;52.664;5.074;2023-07-13T14:07:51;27.50;53.00
16074;DHT22;8141;52.664;5.074;2023-07-13T14:10:19;27.50;52.90
16074;DHT22;8141;52.664;5.074;2023-07-13T14:12:47;27.50;53.00
16074;DHT22;8141;52.664;5.074;2023-07-13T14:15:25;27.50;53.00
16074;DHT22;8141;52.664;5.074;2023-07-13T14:17:53;27.50;52.90
16074;DHT22;8141;52.664;5.074;2023-07-13T14:20:22;27.50;53.20
16074;DHT22;8141;52.664;5.074;2023-07-13T14:22:50;27.50;53.00
16074;DHT22;8141;52.664;5.074;2023-07-13T14:25:20;27.50;52.90
16074;DHT22;8141;52.664;5.074;2023-07-13T14:27:49;27.50;52.80
16074;DHT22;8141;52.664;5.074;2023-07-13T14:30:22;27.50;53.00
16074;DHT22;8141;52.664;5.074;2023-07-13T14:32:48;27.50;52.90
16074;DHT22;8141;52.664;5.074;2023-07-13T14:35:19;27.50;52.90
16074;DHT22;8141;52.664;5.074;2023-07-13T14:37:47;27.50;52.70
16074;DHT22;8141;52.664;5.074;2023-07-13T14:40:19;27.50;52.70
16074;DHT22;8141;52.664;5.074;2023-07-13T14:42:54;27.50;52.60
16074;DHT22;8141;52.664;5.074;2023-07-13T14:45:20;27.50;52.50
16074;DHT22;8141;52.664;5.074;2023-07-13T14:47:47;27.50;52.70
16074;DHT22;8141;52.664;5.074;2023-07-13T14:50:15;27.50;52.50
16074;DHT22;8141;52.664;5.074;2023-07-13T14:52:43;27.50;52.50
16074;DHT22;8141;52.664;5.074;2023-07-13T14:55:12;27.50;52.60
16074;DHT22;8141;52.664;5.074;2023-07-13T14:57:39;27.50;52.70
16074;DHT22;8141;52.664;5.074;2023-07-13T15:02:47;27.50;52.50
16074;DHT22;8141;52.664;5.074;2023-07-13T15:05:21;27.50;52.60
16074;DHT22;8141;52.664;5.074;2023-07-13T15:07:50;27.50;52.50
16074;DHT22;8141;52.664;5.074;2023-07-13T15:12:45;27.50;52.50
16074;DHT22;8141;52.664;5.074;2023-07-13T15:15:12;27.50;52.40
16074;DHT22;8141;52.664;5.074;2023-07-13T15:17:44;27.50;52.30
16074;DHT22;8141;52.664;5.074;2023-07-13T15:20:29;27.50;52.40
16074;DHT22;8141;52.664;5.074;2023-07-13T15:22:59;27.50;52.60
16074;DHT22;8141;52.664;5.074;2023-07-13T15:25:27;27.50;52.70
16074;DHT22;8141;52.664;5.074;2023-07-13T15:27:56;27.50;52.80
16074;DHT22;8141;52.664;5.074;2023-07-13T15:30:27;27.60;52.90
16074;DHT22;8141;52.664;5.074;2023-07-13T15:32:56;27.50;52.90
16074;DHT22;8141;52.664;5.074;2023-07-13T15:35:25;27.50;53.00
16074;DHT22;8141;52.664;5.074;2023-07-13T15:37:52;27.60;53.20
16074;DHT22;8141;52.664;5.074;2023-07-13T15:40:18;27.60;53.00
16074;DHT22;8141;52.664;5.074;2023-07-13T15:42:47;27.60;53.00
16074;DHT22;8141;52.664;5.074;2023-07-13T15:45:24;27.60;53.10
16074;DHT22;8141;52.664;5.074;2023-07-13T15:47:50;27.60;53.00
16074;DHT22;8141;52.664;5.074;2023-07-13T15:50:18;27.60;52.80
16074;DHT22;8141;52.664;5.074;2023-07-13T15:52:48;27.60;52.50
16074;DHT22;8141;52.664;5.074;2023-07-13T15:55:16;27.60;52.50
16074;DHT22;8141;52.664;5.074;2023-07-13T15:57:52;27.60;52.20
16074;DHT22;8141;52.664;5.074;2023-07-13T16:00:23;27.50;52.00
16074;DHT22;8141;52.664;5.074;2023-07-13T16:02:51;27.50;52.20
16074;DHT22;8141;52.664;5.074;2023-07-13T16:05:19;27.50;52.20
16074;DHT22;8141;52.664;5.074;2023-07-13T16:07:47;27.40;52.00
16074;DHT22;8141;52.664;5.074;2023-07-13T16:10:21;27.40;52.00
16074;DHT22;8141;52.664;5.074;2023-07-13T16:12:48;27.40;52.10
16074;DHT22;8141;52.664;5.074;2023-07-13T16:15:16;27.40;51.90
16074;DHT22;8141;52.664;5.074;2023-07-13T16:17:45;27.40;51.90
16074;DHT22;8141;52.664;5.074;2023-07-13T16:20:12;27.30;51.90
16074;DHT22;8141;52.664;5.074;2023-07-13T16:22:40;27.30;51.90
16074;DHT22;8141;52.664;5.074;2023-07-13T16:25:24;27.20;51.90
16074;DHT22;8141;52.664;5.074;2023-07-13T16:27:53;27.20;51.90
16074;DHT22;8141;52.664;5.074;2023-07-13T16:30:25;27.20;51.80
16074;DHT22;8141;52.664;5.074;2023-07-13T16:32:56;27.20;52.00
16074;DHT22;8141;52.664;5.074;2023-07-13T16:35:27;27.20;52.10
16074;DHT22;8141;52.664;5.074;2023-07-13T16:37:53;27.20;52.00
16074;DHT22;8141;52.664;5.074;2023-07-13T16:40:24;27.10;52.00
16074;DHT22;8141;52.664;5.074;2023-07-13T16:42:54;27.10;52.00
16074;DHT22;8141;52.664;5.074;2023-07-13T16:45:22;27.10;52.10
16074;DHT22;8141;52.664;5.074;2023-07-13T16:47:50;27.10;52.00